Time;durP1;ratioP1;P1;durP2;ratioP2;P2;SDS_P1;SDS_P2;PMS_P1;PMS_P2;Temp;Humidity;BMP_temperature;BMP_pressure;BME280_temperature;BME280_humidity;BME280_pressure;Samples;Min_cycle;Max_cycle;Signal;HPM_P1;HPM_P2
2024/01/13 00:02:00;;;;;;;5.95;1.80;;;3.30;92.70;;;;;;5124286;27;20139;-70
2024/01/13 00:04:27;;;;;;;3.53;1.00;;;3.30;92.70;;;;;;5144170;27;20071;-70
2024/01/13 00:06:55;;;;;;;8.10;2.17;;;3.30;92.60;;;;;;5146427;27;20047;-70
2024/01/13 00:09:22;;;;;;;4.57;1.67;;;3.30;92.50;;;;;;5128150;27;20126;-70
2024/01/13 00:11:49;;;;;;;2.87;0.97;;;3.30;92.50;;;;;;5127254;27;20047;-70
2024/01/13 00:14:17;;;;;;;4.63;1.80;;;3.30;92.50;;;;;;5147667;27;20055;-70
2024/01/13 00:16:44;;;;;;;5.10;1.55;;;3.30;92.40;;;;;;5126391;27;20042;-71
2024/01/13 00:19:11;;;;;;;4.13;1.45;;;3.30;92.40;;;;;;5128863;27;20732;-71
2024/01/13 00:21:38;;;;;;;4.05;1.52;;;3.30;92.40;;;;;;5126873;27;20126;-70
2024/01/13 00:24:07;;;;;;;4.80;1.37;;;3.30;92.40;;;;;;5126893;27;20059;-70
2024/01/13 00:26:34;;;;;;;4.50;1.20;;;3.30;92.40;;;;;;5144499;27;20067;-70
2024/01/13 00:29:01;;;;;;;2.90;0.88;;;3.30;92.40;;;;;;5126220;27;20214;-70
2024/01/13 00:31:28;;;;;;;3.90;1.25;;;3.40;92.40;;;;;;5145877;27;20155;-70
2024/01/13 00:33:55;;;;;;;3.35;1.08;;;3.30;92.40;;;;;;5126438;27;20071;-70
2024/01/13 00:36:22;;;;;;;4.17;0.80;;;3.40;92.40;;;;;;5110178;27;20058;-70
2024/01/13 00:38:49;;;;;;;3.53;1.02;;;3.40;92.30;;;;;;5126935;27;20108;-70
2024/01/13 00:41:17;;;;;;;3.35;1.00;;;3.40;92.40;;;;;;5143798;27;20710;-70
2024/01/13 00:43:44;;;;;;;3.95;1.10;;;3.50;92.40;;;;;;5126568;27;20259;-69
2024/01/13 00:46:11;;;;;;;3.55;1.10;;;3.40;92.30;;;;;;5125687;27;20055;-70
2024/01/13 00:48:38;;;;;;;3.93;1.10;;;3.50;92.40;;;;;;5151876;27;20047;-70
2024/01/13 00:51:07;;;;;;;4.50;1.30;;;3.50;92.30;;;;;;5161762;27;20837;-70
2024/01/13 00:53:34;;;;;;;3.92;0.98;;;3.50;92.30;;;;;;5149127;27;20051;-69
2024/01/13 00:56:01;;;;;;;4.32;1.00;;;3.50;92.30;;;;;;5129798;27;20081;-70
2024/01/13 00:58:29;;;;;;;4.22;1.30;;;3.50;92.20;;;;;;5150404;27;20886;-70
2024/01/13 01:00:59;;;;;;;3.63;0.90;;;3.50;92.30;;;;;;5147690;27;20509;-70
2024/01/13 01:03:26;;;;;;;4.43;0.75;;;3.50;92.30;;;;;;5129409;27;20089;-70
2024/01/13 01:05:54;;;;;;;6.25;1.10;;;3.50;92.20;;;;;;5130790;27;20170;-69
2024/01/13 01:08:21;;;;;;;3.22;0.60;;;3.50;92.20;;;;;;5149622;27;20561;-70
2024/01/13 01:10:48;;;;;;;4.07;1.10;;;3.50;92.20;;;;;;5147624;27;20138;-70
2024/01/13 01:13:15;;;;;;;3.30;0.80;;;3.50;92.10;;;;;;5149152;27;20967;-70
2024/01/13 01:15:43;;;;;;;2.75;0.57;;;3.50;92.10;;;;;;5148448;27;20130;-70
2024/01/13 01:18:10;;;;;;;3.65;0.88;;;3.50;92.10;;;;;;5118224;27;20051;-70
2024/01/13 01:20:37;;;;;;;3.60;0.80;;;3.50;92.10;;;;;;5130097;27;20047;-70
2024/01/13 01:23:05;;;;;;;2.85;0.60;;;3.50;92.00;;;;;;5147069;27;20848;-70
2024/01/13 01:25:32;;;;;;;4.13;1.00;;;3.50;92.00;;;;;;5126952;27;20130;-71
2024/01/13 01:27:59;;;;;;;3.95;1.10;;;3.50;92.10;;;;;;5134853;27;20569;-70
2024/01/13 01:30:26;;;;;;;3.03;0.73;;;3.50;92.10;;;;;;5124043;27;20063;-70
2024/01/13 01:32:54;;;;;;;4.22;1.30;;;3.50;92.10;;;;;;5144814;27;20134;-70
2024/01/13 01:35:21;;;;;;;4.47;1.08;;;3.50;92.10;;;;;;5125873;27;20040;-70
2024/01/13 01:37:48;;;;;;;3.70;1.10;;;3.50;92.10;;;;;;5128100;27;20046;-70
2024/01/13 01:40:16;;;;;;;4.93;1.33;;;3.50;92.20;;;;;;5127830;27;21038;-70
2024/01/13 01:42:43;;;;;;;4.28;1.00;;;3.50;92.10;;;;;;5128374;27;20146;-70
2024/01/13 01:45:10;;;;;;;4.10;1.25;;;3.50;92.10;;;;;;5160499;27;20810;-70
2024/01/13 01:47:40;;;;;;;5.70;1.40;;;3.50;92.10;;;;;;5149394;27;20592;-70
2024/01/13 01:50:10;;;;;;;3.53;1.03;;;3.50;92.10;;;;;;5151597;27;20055;-70
2024/01/13 01:52:39;;;;;;;4.60;1.50;;;3.50;92.10;;;;;;5128451;27;20151;-70
2024/01/13 01:55:07;;;;;;;5.00;1.42;;;3.50;92.10;;;;;;5128977;27;20055;-70
2024/01/13 01:57:38;;;;;;;5.70;1.73;;;3.50;92.10;;;;;;5127981;27;20127;-70
2024/01/13 02:00:07;;;;;;;3.08;0.88;;;3.50;92.00;;;;;;5111040;27;20051;-70
2024/01/13 02:02:39;;;;;;;4.30;0.67;;;3.50;92.00;;;;;;5153192;27;20145;-70
2024/01/13 02:05:09;;;;;;;7.03;2.08;;;3.50;92.10;;;;;;5149559;27;20053;-70
2024/01/13 02:07:36;;;;;;;6.13;1.30;;;3.50;92.10;;;;;;5112565;27;20047;-70
2024/01/13 02:10:03;;;;;;;3.15;1.00;;;3.50;92.10;;;;;;5128228;27;20522;-70
2024/01/13 02:12:30;;;;;;;5.65;2.00;;;3.50;92.20;;;;;;5113646;27;21222;-70
2024/01/13 02:14:58;;;;;;;5.07;1.63;;;3.50;92.20;;;;;;5132131;27;20051;-70
2024/01/13 02:17:25;;;;;;;6.45;2.33;;;3.50;92.20;;;;;;5131340;27;20889;-72
2024/01/13 02:19:52;;;;;;;3.70;1.30;;;3.50;92.40;;;;;;5146762;27;20159;-70
2024/01/13 02:22:20;;;;;;;5.53;1.85;;;3.50;92.40;;;;;;5145682;27;20047;-73
2024/01/13 02:24:47;;;;;;;5.50;1.33;;;3.50;92.40;;;;;;5126526;27;20051;-71
2024/01/13 02:27:14;;;;;;;4.63;1.40;;;3.50;92.50;;;;;;5127121;27;20113;-71
2024/01/13 02:29:41;;;;;;;4.03;1.33;;;3.50;92.60;;;;;;5136201;27;20078;-70
2024/01/13 02:32:08;;;;;;;3.75;1.00;;;3.50;92.60;;;;;;5147454;27;20146;-70
2024/01/13 02:34:35;;;;;;;6.47;2.50;;;3.50;92.60;;;;;;5157447;27;20202;-73
2024/01/13 02:37:02;;;;;;;6.00;1.15;;;3.50;92.70;;;;;;5126745;27;20047;-72
2024/01/13 02:39:30;;;;;;;5.63;2.10;;;3.50;92.70;;;;;;5128021;27;20522;-70
2024/01/13 02:41:57;;;;;;;5.53;2.10;;;3.50;92.80;;;;;;5127283;27;20063;-71
2024/01/13 02:44:24;;;;;;;4.70;1.80;;;3.50;92.80;;;;;;5127312;27;20174;-70
2024/01/13 02:46:51;;;;;;;5.95;2.05;;;3.50;92.90;;;;;;5126597;27;20079;-70
2024/01/13 02:49:18;;;;;;;4.70;1.70;;;3.50;92.90;;;;;;5126287;27;20791;-70
2024/01/13 02:51:45;;;;;;;5.20;2.10;;;3.50;92.90;;;;;;5127373;27;20163;-73
2024/01/13 02:54:12;;;;;;;6.32;2.25;;;3.50;92.90;;;;;;5111063;27;20039;-71
2024/01/13 02:56:41;;;;;;;5.72;2.45;;;3.50;93.00;;;;;;5127559;27;20506;-73
2024/01/13 02:59:08;;;;;;;6.65;2.80;;;3.50;93.00;;;;;;5144128;27;20050;-71
2024/01/13 03:01:35;;;;;;;6.75;2.72;;;3.50;93.00;;;;;;5125570;27;20632;-70
2024/01/13 03:04:02;;;;;;;7.13;2.53;;;3.50;93.00;;;;;;5127508;27;20059;-73
2024/01/13 03:06:29;;;;;;;7.53;2.85;;;3.50;93.00;;;;;;5125987;27;20051;-72
2024/01/13 03:08:56;;;;;;;5.85;2.42;;;3.50;93.00;;;;;;5146333;27;20051;-73
2024/01/13 03:11:23;;;;;;;4.50;1.40;;;3.50;93.00;;;;;;5144654;27;20130;-72
2024/01/13 03:13:52;;;;;;;5.90;1.92;;;3.50;93.00;;;;;;5130327;27;20342;-71
2024/01/13 03:16:19;;;;;;;5.30;1.70;;;3.50;92.90;;;;;;5144210;27;20051;-70
2024/01/13 03:18:46;;;;;;;5.30;1.38;;;3.50;92.80;;;;;;5125327;27;20159;-73
2024/01/13 03:21:13;;;;;;;4.82;1.45;;;3.50;92.80;;;;;;5125354;27;20070;-72
2024/01/13 03:23:40;;;;;;;3.83;1.27;;;3.50;92.70;;;;;;5126650;27;20064;-71
2024/01/13 03:26:07;;;;;;;5.43;2.17;;;3.50;92.70;;;;;;5144578;27;20123;-70
2024/01/13 03:28:34;;;;;;;6.20;2.30;;;3.50;92.60;;;;;;5126636;27;20051;-73
2024/01/13 03:31:02;;;;;;;6.05;1.73;;;3.50;92.70;;;;;;5124907;27;20188;-73
2024/01/13 03:33:30;;;;;;;5.00;2.45;;;3.50;92.70;;;;;;5138861;27;20051;-71
2024/01/13 03:35:57;;;;;;;7.32;2.30;;;3.50;92.60;;;;;;5165402;27;20058;-73
2024/01/13 03:38:25;;;;;;;4.55;1.23;;;3.50;92.70;;;;;;5147171;27;20073;-70
2024/01/13 03:40:52;;;;;;;4.00;1.40;;;3.50;92.70;;;;;;5157276;27;20043;-71
2024/01/13 03:43:19;;;;;;;4.68;0.93;;;3.50;92.70;;;;;;5137105;27;20047;-73
2024/01/13 03:45:46;;;;;;;4.75;1.65;;;3.50;92.70;;;;;;5166945;27;20570;-70
2024/01/13 03:48:14;;;;;;;5.18;1.60;;;3.50;92.60;;;;;;5147079;27;20618;-73
2024/01/13 03:50:41;;;;;;;5.20;1.67;;;3.50;92.70;;;;;;5136647;27;20127;-70
2024/01/13 03:53:08;;;;;;;5.17;1.40;;;3.50;92.70;;;;;;5126676;27;20139;-70
2024/01/13 03:55:35;;;;;;;5.13;0.95;;;3.50;92.70;;;;;;5126801;27;20132;-71
2024/01/13 03:58:02;;;;;;;4.45;0.82;;;3.50;92.70;;;;;;5128010;27;20133;-72
2024/01/13 04:00:29;;;;;;;3.72;1.25;;;3.50;92.60;;;;;;5145160;27;20122;-73
2024/01/13 04:02:57;;;;;;;4.80;1.17;;;3.50;92.60;;;;;;5128483;27;20051;-70
2024/01/13 04:05:25;;;;;;;4.03;1.13;;;3.50;92.60;;;;;;5144457;27;20545;-71
2024/01/13 04:07:52;;;;;;;4.50;1.17;;;3.50;92.60;;;;;;5145905;27;20134;-70
2024/01/13 04:10:19;;;;;;;4.10;1.30;;;3.50;92.60;;;;;;5127416;27;20154;-70
2024/01/13 04:12:46;;;;;;;4.80;1.40;;;3.50;92.60;;;;;;5127377;27;20134;-70
2024/01/13 04:15:13;;;;;;;5.88;1.88;;;3.50;92.60;;;;;;5127380;27;20071;-70
2024/01/13 04:17:40;;;;;;;4.10;0.93;;;3.50;92.60;;;;;;5125762;27;20048;-73
2024/01/13 04:20:09;;;;;;;2.80;0.88;;;3.50;92.60;;;;;;5126166;27;20047;-72
2024/01/13 04:22:37;;;;;;;4.28;1.50;;;3.50;92.60;;;;;;5126129;27;20086;-72
2024/01/13 04:25:04;;;;;;;6.38;1.65;;;3.50;92.50;;;;;;5124583;27;20047;-69
2024/01/13 04:27:31;;;;;;;4.85;1.58;;;3.50;92.40;;;;;;5144230;27;20156;-70
2024/01/13 04:29:58;;;;;;;5.23;1.93;;;3.50;92.30;;;;;;5126243;27;20505;-71
2024/01/13 04:32:25;;;;;;;6.78;1.40;;;3.50;92.30;;;;;;5125555;27;20522;-71
2024/01/13 04:34:52;;;;;;;4.60;1.35;;;3.50;92.30;;;;;;5126661;27;20131;-73
2024/01/13 04:37:19;;;;;;;6.60;1.58;;;3.50;92.40;;;;;;5145223;27;20059;-70
2024/01/13 04:39:48;;;;;;;3.80;1.00;;;3.50;92.40;;;;;;5127461;27;20146;-70
2024/01/13 04:42:15;;;;;;;5.00;1.33;;;3.50;92.40;;;;;;5137054;27;20134;-72
2024/01/13 04:44:42;;;;;;;7.07;1.90;;;3.50;92.40;;;;;;5126538;27;20051;-72
2024/01/13 04:47:09;;;;;;;4.43;1.50;;;3.40;92.50;;;;;;5140225;27;20071;-73
2024/01/13 04:49:36;;;;;;;6.05;1.83;;;3.50;92.60;;;;;;5144627;27;20102;-73
2024/01/13 04:52:03;;;;;;;5.30;1.70;;;3.50;92.50;;;;;;5125926;27;20058;-70
2024/01/13 04:54:30;;;;;;;5.97;2.10;;;3.50;92.60;;;;;;5127388;27;20140;-71
2024/01/13 04:56:59;;;;;;;6.95;1.73;;;3.50;92.60;;;;;;5126322;27;20043;-71
2024/01/13 04:59:26;;;;;;;6.13;2.10;;;3.50;92.70;;;;;;5139532;27;20047;-71
2024/01/13 05:01:53;;;;;;;6.15;1.40;;;3.50;92.70;;;;;;5165296;27;20934;-71
2024/01/13 05:04:21;;;;;;;6.88;2.28;;;3.50;92.70;;;;;;5164997;27;20135;-72
2024/01/13 05:06:48;;;;;;;4.07;1.07;;;3.50;92.60;;;;;;5134958;27;20793;-72
2024/01/13 05:09:15;;;;;;;3.85;1.13;;;3.50;92.70;;;;;;5129345;27;20042;-71
2024/01/13 05:11:42;;;;;;;4.03;1.08;;;3.50;92.60;;;;;;5154089;27;20135;-72
2024/01/13 05:14:10;;;;;;;5.97;1.67;;;3.50;92.60;;;;;;5126028;27;20134;-72
2024/01/13 05:16:37;;;;;;;5.50;1.13;;;3.50;92.60;;;;;;5124557;27;20163;-69
2024/01/13 05:19:04;;;;;;;4.47;1.23;;;3.50;92.50;;;;;;5125637;27;20134;-71
2024/01/13 05:21:31;;;;;;;4.13;1.25;;;3.50;92.50;;;;;;5123608;27;20128;-72
2024/01/13 05:23:58;;;;;;;3.97;1.27;;;3.50;92.50;;;;;;5123660;27;20101;-70
2024/01/13 05:26:25;;;;;;;3.47;1.00;;;3.50;92.40;;;;;;5144170;27;20050;-72
2024/01/13 05:28:52;;;;;;;3.55;0.82;;;3.50;92.40;;;;;;5125440;27;20687;-70
2024/01/13 05:31:20;;;;;;;3.90;1.00;;;3.50;92.40;;;;;;5123317;27;20134;-70
2024/01/13 05:33:47;;;;;;;6.10;1.27;;;3.50;92.40;;;;;;5125351;27;20074;-70
2024/01/13 05:36:16;;;;;;;2.95;0.80;;;3.50;92.50;;;;;;5145606;27;20143;-71
2024/01/13 05:38:43;;;;;;;3.03;0.80;;;3.50;92.50;;;;;;5129111;27;20108;-71
2024/01/13 05:41:11;;;;;;;4.10;1.30;;;3.50;92.50;;;;;;5152924;27;20147;-73
2024/01/13 05:43:38;;;;;;;5.13;1.30;;;3.40;92.60;;;;;;5149091;27;20111;-70
2024/01/13 05:46:05;;;;;;;4.40;1.02;;;3.50;92.60;;;;;;5148670;27;20071;-70
2024/01/13 05:48:33;;;;;;;4.35;1.30;;;3.40;92.70;;;;;;5168079;27;20127;-71
2024/01/13 05:51:00;;;;;;;3.90;1.10;;;3.50;92.70;;;;;;5146449;27;20150;-69
2024/01/13 05:53:27;;;;;;;4.78;1.17;;;3.50;92.80;;;;;;5148173;27;20051;-69
2024/01/13 05:55:54;;;;;;;5.07;1.00;;;3.50;92.80;;;;;;5128061;27;20149;-71
2024/01/13 05:58:21;;;;;;;5.47;0.88;;;3.50;92.80;;;;;;5128626;27;20054;-70
2024/01/13 06:00:48;;;;;;;4.45;1.00;;;3.50;92.80;;;;;;5128214;27;20047;-71
2024/01/13 06:03:15;;;;;;;4.50;0.70;;;3.50;92.60;;;;;;5136892;27;20074;-74
2024/01/13 06:05:44;;;;;;;3.50;0.90;;;3.50;92.60;;;;;;5146283;27;20191;-71
2024/01/13 06:08:11;;;;;;;2.37;0.47;;;3.50;92.50;;;;;;5112324;27;20588;-71
2024/01/13 06:10:38;;;;;;;3.00;0.68;;;3.50;92.60;;;;;;5127102;27;20142;-72
2024/01/13 06:13:05;;;;;;;2.75;0.50;;;3.50;92.50;;;;;;5148421;27;20443;-72
2024/01/13 06:15:32;;;;;;;3.60;0.80;;;3.50;92.40;;;;;;5150334;27;20043;-71
2024/01/13 06:17:59;;;;;;;3.05;0.77;;;3.50;92.40;;;;;;5148774;27;20066;-71
2024/01/13 06:20:26;;;;;;;3.73;0.73;;;3.50;92.30;;;;;;5166512;27;20597;-72
2024/01/13 06:22:54;;;;;;;3.00;0.60;;;3.50;92.30;;;;;;5131407;27;20097;-72
2024/01/13 06:25:21;;;;;;;3.10;0.50;;;3.50;92.30;;;;;;5128266;27;20047;-72
2024/01/13 06:27:48;;;;;;;4.28;1.10;;;3.50;92.30;;;;;;5146241;27;20050;-73
2024/01/13 06:30:17;;;;;;;3.88;1.05;;;3.50;92.30;;;;;;5149735;27;20474;-71
2024/01/13 06:32:45;;;;;;;4.87;0.97;;;3.50;92.20;;;;;;5132040;27;20208;-70
2024/01/13 06:35:15;;;;;;;1.30;0.28;;;3.50;92.20;;;;;;5131045;27;20080;-71
2024/01/13 06:37:42;;;;;;;3.08;0.40;;;3.50;92.20;;;;;;5146026;27;20100;-71
2024/01/13 06:40:12;;;;;;;3.58;1.13;;;3.50;92.20;;;;;;5156297;27;20100;-70
2024/01/13 06:42:39;;;;;;;4.55;0.90;;;3.50;92.10;;;;;;5151843;27;20938;-70
2024/01/13 06:45:08;;;;;;;4.10;0.80;;;3.60;92.20;;;;;;5134359;27;20138;-70
2024/01/13 06:47:36;;;;;;;2.10;0.50;;;3.60;92.20;;;;;;5139634;27;20051;-71
2024/01/13 06:50:03;;;;;;;3.65;0.80;;;3.60;92.00;;;;;;5136104;27;20150;-70
2024/01/13 06:52:30;;;;;;;3.05;0.60;;;3.60;92.00;;;;;;5155360;27;20898;-70
2024/01/13 06:54:57;;;;;;;3.85;0.98;;;3.50;92.00;;;;;;5153867;27;20148;-71
2024/01/13 06:57:25;;;;;;;1.97;0.30;;;3.50;92.10;;;;;;5136002;27;20100;-71
2024/01/13 06:59:52;;;;;;;2.85;0.60;;;3.60;92.10;;;;;;5154583;27;20075;-70
2024/01/13 07:02:19;;;;;;;3.90;1.02;;;3.60;92.10;;;;;;5135729;27;20077;-71
2024/01/13 07:04:50;;;;;;;3.42;0.95;;;3.50;92.00;;;;;;5155136;27;20051;-70
2024/01/13 07:07:17;;;;;;;4.68;1.50;;;3.50;92.20;;;;;;5136231;27;20074;-70
2024/01/13 07:09:44;;;;;;;5.73;1.60;;;3.50;92.30;;;;;;5135439;27;20047;-70
2024/01/13 07:12:11;;;;;;;4.50;1.48;;;3.50;92.40;;;;;;5134443;27;20047;-70
2024/01/13 07:14:39;;;;;;;4.72;1.23;;;3.50;92.50;;;;;;5135389;27;20094;-70
2024/01/13 07:17:06;;;;;;;4.28;0.98;;;3.60;92.40;;;;;;5135108;27;20134;-70
2024/01/13 07:19:34;;;;;;;3.88;0.98;;;3.50;92.50;;;;;;5155338;27;20059;-70
2024/01/13 07:22:02;;;;;;;3.47;0.70;;;3.60;92.50;;;;;;5135286;27;20138;-70
2024/01/13 07:24:30;;;;;;;4.75;1.40;;;3.50;92.40;;;;;;5134970;27;20876;-71
2024/01/13 07:26:57;;;;;;;3.28;0.90;;;3.60;92.60;;;;;;5135388;27;20100;-70
2024/01/13 07:29:24;;;;;;;4.32;0.90;;;3.60;92.70;;;;;;5161452;27;20058;-71
2024/01/13 07:31:52;;;;;;;2.47;0.70;;;3.60;92.80;;;;;;5174771;27;20050;-70
2024/01/13 07:34:21;;;;;;;3.80;0.73;;;3.60;92.80;;;;;;5173292;27;20086;-70
2024/01/13 07:36:48;;;;;;;2.88;0.60;;;3.60;92.80;;;;;;5175257;27;20054;-70
2024/01/13 07:39:15;;;;;;;3.00;0.90;;;3.60;92.90;;;;;;5175999;27;20513;-70
2024/01/13 07:41:43;;;;;;;3.70;1.05;;;3.60;92.90;;;;;;5173230;27;20289;-71
2024/01/13 07:44:11;;;;;;;3.25;0.93;;;3.60;92.90;;;;;;5150890;27;20134;-70
2024/01/13 07:46:41;;;;;;;4.03;1.00;;;3.60;92.90;;;;;;5154806;27;20051;-70
2024/01/13 07:49:09;;;;;;;3.42;1.13;;;3.60;92.80;;;;;;5172573;27;20093;-70
2024/01/13 07:51:37;;;;;;;2.78;0.60;;;3.60;92.80;;;;;;5152775;27;20093;-70
2024/01/13 07:54:04;;;;;;;2.75;0.68;;;3.60;92.80;;;;;;5153888;27;20085;-71
2024/01/13 07:56:31;;;;;;;2.88;0.77;;;3.60;92.80;;;;;;5149558;27;20136;-70
2024/01/13 07:58:58;;;;;;;3.63;0.80;;;3.60;92.80;;;;;;5171682;27;20046;-70
2024/01/13 08:01:26;;;;;;;3.17;0.60;;;3.60;92.80;;;;;;5173727;27;20078;-70
2024/01/13 08:03:53;;;;;;;2.63;0.43;;;3.60;92.80;;;;;;5170604;27;20046;-71
2024/01/13 08:06:23;;;;;;;4.28;1.02;;;3.60;92.70;;;;;;5155236;27;20403;-71
2024/01/13 08:08:50;;;;;;;2.88;0.93;;;3.60;92.70;;;;;;5155088;27;20791;-70
2024/01/13 08:11:17;;;;;;;3.03;1.03;;;3.60;92.90;;;;;;5174988;27;20614;-71
2024/01/13 08:13:44;;;;;;;3.53;1.13;;;3.60;92.90;;;;;;5155648;27;20413;-70
2024/01/13 08:16:11;;;;;;;2.28;0.50;;;3.50;93.00;;;;;;5172913;27;20497;-70
2024/01/13 08:18:38;;;;;;;3.45;1.17;;;3.50;93.00;;;;;;5152504;27;20047;-70
2024/01/13 08:21:05;;;;;;;3.70;0.95;;;3.50;93.10;;;;;;5138364;27;20157;-71
2024/01/13 08:23:34;;;;;;;2.60;0.60;;;3.50;93.10;;;;;;5152502;27;20853;-71
2024/01/13 08:26:02;;;;;;;2.53;0.50;;;3.60;93.10;;;;;;5172669;27;20593;-71
2024/01/13 08:28:29;;;;;;;3.00;1.27;;;3.50;93.20;;;;;;5152656;27;20050;-71
2024/01/13 08:30:56;;;;;;;6.05;2.75;;;3.50;93.20;;;;;;5174560;27;20034;-71
2024/01/13 08:33:23;;;;;;;6.05;1.75;;;3.50;93.20;;;;;;5169041;27;20120;-71
2024/01/13 08:35:50;;;;;;;5.07;1.43;;;3.50;93.30;;;;;;5153509;27;20078;-71
2024/01/13 08:38:17;;;;;;;10.05;4.32;;;3.50;93.20;;;;;;5152908;27;20569;-70
2024/01/13 08:40:46;;;;;;;8.45;2.33;;;3.50;93.30;;;;;;5153738;27;20078;-70
2024/01/13 08:43:13;;;;;;;8.73;2.72;;;3.60;93.30;;;;;;5152605;27;20047;-71
2024/01/13 08:45:40;;;;;;;7.32;3.10;;;3.60;93.40;;;;;;5171227;27;20778;-71
2024/01/13 08:48:07;;;;;;;10.37;3.43;;;3.60;93.40;;;;;;5151678;27;20165;-71
2024/01/13 08:50:34;;;;;;;10.52;4.70;;;3.60;93.40;;;;;;5154701;27;20043;-71
2024/01/13 08:53:01;;;;;;;12.60;5.38;;;3.60;93.30;;;;;;5149941;27;20043;-70
2024/01/13 08:55:28;;;;;;;12.32;4.75;;;3.60;93.30;;;;;;5155058;27;20050;-70
2024/01/13 08:57:57;;;;;;;12.45;5.28;;;3.60;93.30;;;;;;5168490;27;20254;-71
2024/01/13 09:00:25;;;;;;;25.13;12.53;;;3.60;93.20;;;;;;5151284;27;20082;-71
2024/01/13 09:02:53;;;;;;;19.17;8.30;;;3.60;93.10;;;;;;5153966;27;20047;-71
2024/01/13 09:05:20;;;;;;;21.17;7.47;;;3.70;93.00;;;;;;5174644;27;20474;-70
2024/01/13 09:07:48;;;;;;;16.55;6.65;;;3.70;92.90;;;;;;5155060;27;20146;-71
2024/01/13 09:10:15;;;;;;;25.15;8.30;;;3.70;92.80;;;;;;5155554;27;20053;-70
2024/01/13 09:12:42;;;;;;;20.27;8.17;;;3.70;92.70;;;;;;5177593;27;20430;-70
2024/01/13 09:15:12;;;;;;;20.23;7.10;;;3.70;92.60;;;;;;5134854;27;20146;-72
2024/01/13 09:17:39;;;;;;;18.08;8.18;;;3.70;92.40;;;;;;5145818;27;20100;-71
2024/01/13 09:20:09;;;;;;;28.98;14.60;;;3.70;92.30;;;;;;5141776;27;20412;-71
2024/01/13 09:22:36;;;;;;;23.50;9.88;;;3.70;92.10;;;;;;5145557;27;20635;-72
2024/01/13 09:25:03;;;;;;;29.27;13.40;;;3.70;92.00;;;;;;5149453;27;20050;-72
2024/01/13 09:27:30;;;;;;;21.40;8.50;;;3.70;91.70;;;;;;5165376;27;20055;-72
2024/01/13 09:29:57;;;;;;;30.45;11.40;;;3.70;91.60;;;;;;5165111;27;20063;-72
2024/01/13 09:32:25;;;;;;;25.02;10.77;;;3.70;91.60;;;;;;5147227;27;20047;-72
2024/01/13 09:34:52;;;;;;;26.40;13.32;;;3.70;91.60;;;;;;5145681;27;20481;-71
2024/01/13 09:37:20;;;;;;;28.53;12.17;;;3.70;91.50;;;;;;5168691;27;20050;-72
2024/01/13 09:39:47;;;;;;;27.40;10.68;;;3.70;91.30;;;;;;5168322;27;20479;-72
2024/01/13 09:42:23;;;;;;;29.52;12.85;;;3.70;91.10;;;;;;5149903;27;20086;-72
2024/01/13 09:44:50;;;;;;;28.52;11.35;;;3.70;91.00;;;;;;5165874;27;20149;-72
2024/01/13 09:47:18;;;;;;;36.30;15.98;;;3.70;91.00;;;;;;5169128;27;20058;-72
2024/01/13 09:49:50;;;;;;;36.63;15.70;;;3.70;90.80;;;;;;5169555;27;20142;-72
2024/01/13 09:52:18;;;;;;;38.17;17.40;;;3.70;90.70;;;;;;5168792;27;20062;-72
2024/01/13 09:54:50;;;;;;;33.15;13.68;;;3.70;90.70;;;;;;5148593;27;20057;-72
2024/01/13 09:57:18;;;;;;;34.92;16.08;;;3.70;90.80;;;;;;5150452;27;20074;-72
2024/01/13 09:59:46;;;;;;;38.42;16.40;;;3.70;90.70;;;;;;5168108;27;20055;-72
2024/01/13 10:02:14;;;;;;;35.13;16.40;;;3.80;90.70;;;;;;5147061;27;20619;-72
2024/01/13 10:04:41;;;;;;;38.50;17.40;;;3.80;90.50;;;;;;5169109;27;20147;-72
2024/01/13 10:07:10;;;;;;;39.95;16.50;;;3.80;90.30;;;;;;5149876;27;20691;-72
2024/01/13 10:09:38;;;;;;;47.33;20.17;;;3.80;90.10;;;;;;5167248;27;20154;-71
2024/01/13 10:12:06;;;;;;;41.08;16.65;;;3.80;90.10;;;;;;5148166;27;20074;-71
2024/01/13 10:14:35;;;;;;;44.63;18.03;;;3.80;90.00;;;;;;5149346;27;20049;-72
2024/01/13 10:17:03;;;;;;;41.05;17.40;;;3.80;90.00;;;;;;5150553;27;20077;-71
2024/01/13 10:19:30;;;;;;;41.88;16.38;;;3.90;90.00;;;;;;5149148;27;20046;-71
2024/01/13 10:21:57;;;;;;;36.63;14.63;;;3.90;89.90;;;;;;5166205;27;20132;-71
2024/01/13 10:24:26;;;;;;;30.02;12.73;;;3.90;89.90;;;;;;5168005;27;20580;-72
2024/01/13 10:26:53;;;;;;;33.33;11.90;;;3.90;90.00;;;;;;5169419;27;20129;-73
2024/01/13 10:29:20;;;;;;;32.05;14.10;;;3.90;89.80;;;;;;5162039;27;20186;-72
2024/01/13 10:31:50;;;;;;;34.78;13.77;;;3.90;89.70;;;;;;5150319;27;20043;-72
2024/01/13 10:34:19;;;;;;;40.05;16.58;;;3.90;89.60;;;;;;5167118;27;20477;-72
2024/01/13 10:36:46;;;;;;;38.30;14.15;;;3.90;89.30;;;;;;5169143;27;20051;-72
2024/01/13 10:39:13;;;;;;;40.43;20.90;;;3.90;89.30;;;;;;5150198;27;20573;-72
2024/01/13 10:41:44;;;;;;;29.27;12.90;;;3.90;89.30;;;;;;5149586;27;20803;-72
2024/01/13 10:44:13;;;;;;;35.78;15.45;;;3.90;89.20;;;;;;5165819;27;20062;-72
2024/01/13 10:46:45;;;;;;;40.47;21.38;;;3.90;89.00;;;;;;5150025;27;20098;-72
2024/01/13 10:49:14;;;;;;;44.85;19.00;;;3.90;88.90;;;;;;5148877;27;20034;-72
2024/01/13 10:51:43;;;;;;;41.80;21.40;;;3.90;88.90;;;;;;5146463;27;20057;-72
2024/01/13 10:54:12;;;;;;;31.63;13.70;;;3.90;88.90;;;;;;5160928;27;20417;-72
2024/01/13 10:56:40;;;;;;;36.28;16.33;;;3.90;89.00;;;;;;5165510;27;20055;-72
2024/01/13 10:59:09;;;;;;;35.28;14.27;;;3.90;89.10;;;;;;5146848;27;20725;-72
2024/01/13 11:01:37;;;;;;;37.28;13.48;;;3.90;89.30;;;;;;5145748;27;20054;-72
2024/01/13 11:04:05;;;;;;;41.97;19.90;;;3.90;89.40;;;;;;5144167;27;20053;-72
2024/01/13 11:06:32;;;;;;;43.55;16.92;;;3.90;89.50;;;;;;5167335;27;20131;-72
2024/01/13 11:09:00;;;;;;;34.10;12.75;;;3.90;89.50;;;;;;5166766;27;20070;-72
2024/01/13 11:11:30;;;;;;;39.28;18.30;;;3.90;89.60;;;;;;5166757;27;20062;-72
2024/01/13 11:14:01;;;;;;;30.88;15.25;;;3.90;89.50;;;;;;5160277;27;20456;-72
2024/01/13 11:16:29;;;;;;;38.73;19.33;;;3.90;89.40;;;;;;5170542;27;20107;-73
2024/01/13 11:18:58;;;;;;;48.55;22.08;;;3.90;89.40;;;;;;5168275;27;20047;-73
2024/01/13 11:21:30;;;;;;;41.95;21.08;;;3.90;89.50;;;;;;5149330;27;20074;-72
2024/01/13 11:24:07;;;;;;;28.80;14.70;;;3.90;89.40;;;;;;5167349;27;20763;-72
2024/01/13 11:26:37;;;;;;;37.30;16.33;;;3.90;89.40;;;;;;5129375;27;20057;-72
2024/01/13 11:29:15;;;;;;;38.90;18.77;;;3.90;89.50;;;;;;5166760;27;20056;-72
2024/01/13 11:31:45;;;;;;;33.83;15.13;;;3.90;89.60;;;;;;5149325;27;20400;-73
2024/01/13 11:34:14;;;;;;;31.40;12.45;;;3.90;89.70;;;;;;5143436;27;20050;-73
2024/01/13 11:36:44;;;;;;;42.28;21.73;;;3.90;90.00;;;;;;5149184;27;20055;-72
2024/01/13 11:39:11;;;;;;;40.78;20.05;;;3.90;90.10;;;;;;5146763;27;20520;-72
2024/01/13 11:41:40;;;;;;;32.70;14.07;;;3.90;90.30;;;;;;5149236;27;20131;-72
2024/01/13 11:44:07;;;;;;;46.10;16.25;;;3.90;90.50;;;;;;5161091;27;20055;-72
2024/01/13 11:46:38;;;;;;;39.90;18.73;;;3.90;90.70;;;;;;5147728;27;20129;-72
2024/01/13 11:49:07;;;;;;;39.28;19.23;;;3.90;90.90;;;;;;5146652;27;20133;-72
2024/01/13 11:51:56;;;;;;;43.38;16.48;;;3.90;91.10;;;;;;5147507;27;20054;-72
2024/01/13 11:54:23;;;;;;;33.90;18.73;;;3.90;91.10;;;;;;5162623;27;20568;-72
2024/01/13 11:56:50;;;;;;;33.30;11.02;;;3.90;91.10;;;;;;5145821;27;20050;-72
2024/01/13 11:59:17;;;;;;;28.05;12.80;;;3.90;91.20;;;;;;5145110;27;20130;-72
2024/01/13 12:01:45;;;;;;;38.05;15.98;;;3.90;91.40;;;;;;5160955;27;20133;-73
2024/01/13 12:04:14;;;;;;;33.22;12.95;;;3.90;91.40;;;;;;5134977;27;20225;-73
2024/01/13 12:06:43;;;;;;;24.57;9.13;;;3.90;91.50;;;;;;5124352;27;20384;-72
2024/01/13 12:09:11;;;;;;;33.67;13.10;;;3.90;91.50;;;;;;5124275;27;20086;-72
2024/01/13 12:11:38;;;;;;;21.52;7.45;;;4.00;91.50;;;;;;5113187;27;20548;-72
2024/01/13 12:14:06;;;;;;;34.65;17.02;;;4.00;91.60;;;;;;5124635;27;20767;-72
2024/01/13 12:16:35;;;;;;;22.13;9.10;;;4.00;91.60;;;;;;5125042;27;20059;-72
2024/01/13 12:19:03;;;;;;;29.60;11.63;;;4.00;91.60;;;;;;5128177;27;20062;-72
2024/01/13 12:21:31;;;;;;;22.88;9.55;;;4.00;91.60;;;;;;5110902;27;20055;-72
2024/01/13 12:24:00;;;;;;;27.88;11.48;;;4.00;91.60;;;;;;5128353;27;20138;-71
2024/01/13 12:26:31;;;;;;;29.40;9.50;;;4.10;91.70;;;;;;5128338;27;20875;-71
2024/01/13 12:28:59;;;;;;;32.30;12.82;;;4.10;91.80;;;;;;5127973;27;20100;-72
2024/01/13 12:31:26;;;;;;;35.43;13.40;;;4.20;91.70;;;;;;5146953;27;20112;-72
2024/01/13 12:33:53;;;;;;;22.63;8.50;;;4.20;91.50;;;;;;5152348;27;20069;-72
2024/01/13 12:36:20;;;;;;;31.00;12.52;;;4.20;91.50;;;;;;5136134;27;20071;-72
2024/01/13 12:38:49;;;;;;;30.13;13.95;;;4.20;91.40;;;;;;5133909;27;20046;-72
2024/01/13 12:41:17;;;;;;;31.48;13.18;;;4.20;91.40;;;;;;5129863;27;20055;-72
2024/01/13 12:43:44;;;;;;;29.47;10.33;;;4.20;91.50;;;;;;5148359;27;20054;-72
2024/01/13 12:46:11;;;;;;;31.52;12.25;;;4.20;91.40;;;;;;5151434;27;20165;-71
2024/01/13 12:48:38;;;;;;;33.33;11.75;;;4.20;91.50;;;;;;5169436;27;20405;-72
2024/01/13 12:51:09;;;;;;;16.55;7.60;;;4.30;91.50;;;;;;5166623;27;20513;-72
2024/01/13 12:53:38;;;;;;;32.08;15.30;;;4.30;91.50;;;;;;5149701;27;20103;-72